createdAt,value
2023-01-10T00:00:35.256Z,16.45
2023-01-10T00:03:21.786Z,18.48
2023-01-10T00:06:07.708Z,17.17
2023-01-10T00:08:53.832Z,20.98
2023-01-10T00:11:58.696Z,16.90
2023-01-10T00:14:44.607Z,15.60
2023-01-10T00:17:30.397Z,16.35
2023-01-10T00:20:16.552Z,17.70
2023-01-10T00:23:03.643Z,14.80
2023-01-10T00:25:49.468Z,17.35
2023-01-10T00:28:35.747Z,17.35
2023-01-10T00:31:21.659Z,18.00
2023-01-10T00:34:08.056Z,16.50
2023-01-10T00:36:53.879Z,17.38
2023-01-10T00:39:39.858Z,18.02
2023-01-10T00:42:44.281Z,18.67
2023-01-10T00:45:30.846Z,17.90
2023-01-10T00:48:17.279Z,14.20
2023-01-10T00:51:04.052Z,16.27
2023-01-10T00:53:50.137Z,14.70
2023-01-10T00:56:35.984Z,18.80
2023-01-10T00:59:21.985Z,14.90
2023-01-10T01:02:08.008Z,17.65
2023-01-10T01:04:53.838Z,15.52
2023-01-10T01:07:39.849Z,12.15
2023-01-10T01:10:28.340Z,12.38
2023-01-10T01:13:17.501Z,10.18
2023-01-10T01:16:03.741Z,15.23
2023-01-10T01:18:49.694Z,12.05
2023-01-10T01:21:35.705Z,10.00
2023-01-10T01:24:23.085Z,10.23
2023-01-10T01:27:08.847Z,8.60
2023-01-10T01:29:54.859Z,9.98
2023-01-10T01:32:41.026Z,8.77
2023-01-10T01:35:27.361Z,10.00
2023-01-10T01:38:13.838Z,9.13
2023-01-10T01:40:59.609Z,8.05
2023-01-10T01:44:00.379Z,8.25
2023-01-10T01:46:51.581Z,8.05
2023-01-10T01:49:43.977Z,6.07
2023-01-10T01:52:34.761Z,4.88
2023-01-10T01:55:21.460Z,4.03
2023-01-10T01:58:10.607Z,5.07
2023-01-10T02:00:58.651Z,4.78
2023-01-10T02:03:49.289Z,4.60
2023-01-10T02:06:35.413Z,3.88
2023-01-10T02:09:45.769Z,3.88
2023-01-10T02:12:32.512Z,6.38
2023-01-10T02:15:18.902Z,3.65
2023-01-10T02:18:04.951Z,3.55
2023-01-10T02:21:10.037Z,3.75
2023-01-10T02:24:35.186Z,6.03
2023-01-10T02:27:38.637Z,5.10
2023-01-10T02:30:36.452Z,3.67
2023-01-10T02:33:36.999Z,4.57
2023-01-10T02:36:42.990Z,3.47
2023-01-10T02:39:35.300Z,3.55
2023-01-10T02:42:30.428Z,5.93
2023-01-10T02:45:21.938Z,3.60
2023-01-10T02:48:07.987Z,3.25
2023-01-10T02:51:02.273Z,2.72
2023-01-10T02:53:58.663Z,2.97
2023-01-10T02:57:10.289Z,3.95
2023-01-10T03:00:28.973Z,3.03
2023-01-10T03:04:00.498Z,15.73
2023-01-10T03:06:56.077Z,34.13
2023-01-10T03:09:59.685Z,12.57
2023-01-10T03:12:57.203Z,8.77
2023-01-10T03:15:43.746Z,6.55
2023-01-10T03:18:34.588Z,4.70
2023-01-10T03:21:22.638Z,3.30
2023-01-10T03:24:19.542Z,5.20
2023-01-10T03:27:20.867Z,6.28
2023-01-10T03:30:15.526Z,6.38
2023-01-10T03:33:01.611Z,4.50
2023-01-10T03:35:50.639Z,11.50
2023-01-10T03:38:42.345Z,13.90
2023-01-10T03:41:42.703Z,19.20
2023-01-10T03:44:46.214Z,8.88
2023-01-10T03:47:41.757Z,7.80
2023-01-10T03:50:28.350Z,4.97
2023-01-10T03:53:14.375Z,3.63
2023-01-10T03:56:00.638Z,5.30
2023-01-10T03:58:46.587Z,8.00
2023-01-10T04:01:32.396Z,5.47
2023-01-10T04:04:18.423Z,5.78
2023-01-10T04:07:04.546Z,6.88
2023-01-10T04:09:50.393Z,6.13
2023-01-10T04:12:36.562Z,4.03
2023-01-10T04:15:22.304Z,4.35
2023-01-10T04:18:08.353Z,4.00
2023-01-10T04:20:54.175Z,4.32
2023-01-10T04:23:39.858Z,3.33
2023-01-10T04:26:25.840Z,5.05
2023-01-10T04:29:11.786Z,5.60
2023-01-10T04:31:57.664Z,4.15
2023-01-10T04:34:43.729Z,7.30
2023-01-10T04:37:29.679Z,4.32
2023-01-10T04:40:19.443Z,6.90
2023-01-10T04:43:05.175Z,5.07
2023-01-10T04:45:51.557Z,9.65
2023-01-10T04:48:37.676Z,11.68
2023-01-10T04:51:23.705Z,13.73
2023-01-10T04:54:09.630Z,10.85
2023-01-10T04:56:55.449Z,8.88
2023-01-10T04:59:41.093Z,4.10
2023-01-10T05:02:27.084Z,2.88
2023-01-10T05:05:14.150Z,5.82
2023-01-10T05:08:00.169Z,5.13
2023-01-10T05:10:45.959Z,6.65
2023-01-10T05:13:31.968Z,8.10
2023-01-10T05:16:17.839Z,6.60
2023-01-10T05:19:03.817Z,6.53
2023-01-10T05:21:52.223Z,6.38
2023-01-10T05:24:38.183Z,5.40
2023-01-10T05:27:24.129Z,6.55
2023-01-10T05:30:11.997Z,6.50
2023-01-10T05:32:57.716Z,8.57
2023-01-10T05:35:43.621Z,12.23
2023-01-10T05:38:30.193Z,11.25
2023-01-10T05:41:15.964Z,9.02
2023-01-10T05:44:01.943Z,12.43
2023-01-10T05:46:47.660Z,8.90
2023-01-10T05:49:34.287Z,6.88
2023-01-10T05:52:20.436Z,8.20
2023-01-10T05:55:06.534Z,7.55
2023-01-10T05:57:52.298Z,6.07
2023-01-10T06:00:40.145Z,9.25
2023-01-10T06:03:26.785Z,7.80
2023-01-10T06:06:12.789Z,8.10
2023-01-10T06:08:59.931Z,7.05
2023-01-10T06:11:45.805Z,10.70
2023-01-10T06:14:31.575Z,5.63
2023-01-10T06:17:17.474Z,8.27
2023-01-10T06:20:04.045Z,7.78
2023-01-10T06:22:50.255Z,11.60
2023-01-10T06:25:40.262Z,11.25
2023-01-10T06:28:26.234Z,14.45
2023-01-10T06:31:12.139Z,12.95
2023-01-10T06:33:58.007Z,13.55
2023-01-10T06:36:43.749Z,12.95
2023-01-10T06:39:29.583Z,13.05
2023-01-10T06:42:15.418Z,10.00
2023-01-10T06:45:01.525Z,8.30
2023-01-10T06:47:47.510Z,13.27
2023-01-10T06:50:33.218Z,12.88
2023-01-10T06:53:19.160Z,9.70
2023-01-10T06:56:06.087Z,12.13
2023-01-10T06:58:51.859Z,17.85
2023-01-10T07:01:37.858Z,20.60
2023-01-10T07:04:23.506Z,18.48
2023-01-10T07:07:09.555Z,17.85
2023-01-10T07:09:55.464Z,17.55
2023-01-10T07:12:41.342Z,15.00
2023-01-10T07:15:28.315Z,24.35
2023-01-10T07:18:14.604Z,28.17
2023-01-10T07:21:00.718Z,36.50
2023-01-10T07:23:50.550Z,25.25
2023-01-10T07:26:36.374Z,20.38
2023-01-10T07:29:22.530Z,24.65
2023-01-10T07:32:08.476Z,21.27
2023-01-10T07:34:54.341Z,19.52
2023-01-10T07:37:40.136Z,16.77
2023-01-10T07:40:27.103Z,19.00
2023-01-10T07:43:12.965Z,14.20
2023-01-10T07:46:03.159Z,19.83
2023-01-10T07:48:49.397Z,19.80
2023-01-10T07:51:35.483Z,20.30
2023-01-10T07:54:21.422Z,22.73
2023-01-10T07:57:07.506Z,13.25
2023-01-10T07:59:53.767Z,19.23
2023-01-10T08:02:39.880Z,16.58
2023-01-10T08:05:25.713Z,14.60
2023-01-10T08:08:12.712Z,20.77
2023-01-10T08:10:59.738Z,28.75
2023-01-10T08:13:45.945Z,21.95
2023-01-10T08:16:31.733Z,33.22
2023-01-10T08:19:18.511Z,17.55
2023-01-10T08:22:04.500Z,17.80
2023-01-10T08:24:50.307Z,21.45
2023-01-10T08:27:36.164Z,16.50
2023-01-10T08:30:22.431Z,27.05
2023-01-10T08:33:09.916Z,52.13
2023-01-10T08:35:56.091Z,31.98
2023-01-10T08:38:42.011Z,25.95
2023-01-10T08:41:27.765Z,16.13
2023-01-10T08:44:15.583Z,18.30
2023-01-10T08:47:01.977Z,16.38
2023-01-10T08:49:49.876Z,18.45
2023-01-10T08:52:36.121Z,19.10
2023-01-10T08:55:22.246Z,19.77
2023-01-10T08:58:09.167Z,20.33
2023-01-10T09:00:55.148Z,17.90
2023-01-10T09:03:41.080Z,21.48
2023-01-10T09:06:26.959Z,20.50
2023-01-10T09:09:12.816Z,18.25
2023-01-10T09:11:58.724Z,15.20
2023-01-10T09:14:44.879Z,15.52
2023-01-10T09:17:30.779Z,16.95
2023-01-10T09:20:16.853Z,17.80
2023-01-10T09:23:08.759Z,16.27
2023-01-10T09:25:55.979Z,26.90
2023-01-10T09:28:42.257Z,34.78
2023-01-10T09:31:28.187Z,33.13
2023-01-10T09:34:14.170Z,14.60
2023-01-10T09:36:59.940Z,16.25
2023-01-10T09:39:45.795Z,13.02
2023-01-10T09:43:26.037Z,12.43
2023-01-10T09:46:29.518Z,33.90
2023-01-10T09:49:18.352Z,24.70
2023-01-10T09:52:08.980Z,27.48
2023-01-10T09:54:57.452Z,32.17
2023-01-10T09:57:44.604Z,32.33
2023-01-10T10:01:00.488Z,51.03
2023-01-10T10:03:52.760Z,36.13
2023-01-10T10:06:38.597Z,33.65
2023-01-10T10:09:33.620Z,30.98
2023-01-10T10:12:19.370Z,32.08
2023-01-10T10:15:27.475Z,29.83
2023-01-10T10:18:22.445Z,32.67
2023-01-10T10:21:43.343Z,33.95
2023-01-10T10:24:44.966Z,38.28
2023-01-10T10:27:41.407Z,40.88
2023-01-10T10:30:33.729Z,42.83
2023-01-10T10:33:22.625Z,43.40
2023-01-10T10:36:20.921Z,42.78
2023-01-10T10:39:11.722Z,44.67
2023-01-10T10:41:59.177Z,33.88
2023-01-10T10:44:59.833Z,27.20
2023-01-10T10:47:51.313Z,26.42
2023-01-10T10:50:52.661Z,20.27
2023-01-10T10:53:38.835Z,19.45
2023-01-10T10:56:26.931Z,18.88
2023-01-10T10:59:19.913Z,17.55
2023-01-10T11:02:29.658Z,21.42
2023-01-10T11:05:18.888Z,34.45
2023-01-10T11:08:24.972Z,35.58
2023-01-10T11:11:27.529Z,42.72
2023-01-10T11:14:13.930Z,28.85
2023-01-10T11:17:21.344Z,21.70
2023-01-10T11:20:15.694Z,19.17
2023-01-10T11:23:01.586Z,15.93
2023-01-10T11:25:48.954Z,14.93
2023-01-10T11:28:34.995Z,14.52
2023-01-10T11:31:30.758Z,6.47
2023-01-10T11:34:37.848Z,5.25
2023-01-10T11:37:29.310Z,5.60
2023-01-10T11:40:15.266Z,4.07
2023-01-10T11:43:26.842Z,6.40
2023-01-10T11:46:16.867Z,3.25
2023-01-10T11:49:08.365Z,3.53
2023-01-10T11:52:00.284Z,2.90
2023-01-10T11:54:46.650Z,2.97
2023-01-10T11:57:33.207Z,1.65
2023-01-10T12:00:19.386Z,1.50
2023-01-10T12:03:27.518Z,3.55
2023-01-10T12:06:17.783Z,1.90
2023-01-10T12:09:03.962Z,1.92
2023-01-10T12:12:02.090Z,0.85
2023-01-10T12:14:48.992Z,1.27
2023-01-10T12:17:37.496Z,0.85
2023-01-10T12:20:24.010Z,0.70
2023-01-10T12:23:18.450Z,1.45
2023-01-10T12:26:11.906Z,1.30
2023-01-10T12:29:08.750Z,0.55
2023-01-10T12:31:56.048Z,0.85
2023-01-10T12:34:44.662Z,0.85
2023-01-10T12:37:37.694Z,0.80
2023-01-10T12:40:31.423Z,0.75
2023-01-10T12:43:53.094Z,3.83
2023-01-10T12:47:05.766Z,3.40
2023-01-10T12:49:56.383Z,1.58
2023-01-10T12:52:49.219Z,0.98
2023-01-10T12:55:40.894Z,1.42
2023-01-10T12:58:49.204Z,0.98
2023-01-10T13:01:40.440Z,1.27
2023-01-10T13:04:26.699Z,0.70
2023-01-10T13:07:13.575Z,2.58
2023-01-10T13:10:02.507Z,1.20
2023-01-10T13:13:15.131Z,1.00
2023-01-10T13:16:31.911Z,0.77
2023-01-10T13:19:21.542Z,9.55
2023-01-10T13:22:23.719Z,7.00
2023-01-10T13:25:24.819Z,1.48
2023-01-10T13:28:24.241Z,1.42
2023-01-10T13:31:29.843Z,1.90
2023-01-10T13:34:16.650Z,1.27
2023-01-10T13:37:18.569Z,1.20
2023-01-10T13:40:05.730Z,1.20
2023-01-10T13:43:33.680Z,2.55
2023-01-10T13:46:19.681Z,1.77
2023-01-10T13:49:14.093Z,0.70
2023-01-10T13:52:29.266Z,2.00
2023-01-10T13:55:30.589Z,1.85
2023-01-10T13:58:16.816Z,1.40
2023-01-10T14:01:21.648Z,0.70
2023-01-10T14:04:08.039Z,1.85
2023-01-10T14:06:56.721Z,1.85
2023-01-10T14:09:46.449Z,2.90
2023-01-10T14:12:41.125Z,2.08
2023-01-10T14:15:34.286Z,1.67
2023-01-10T14:18:28.632Z,3.13
2023-01-10T14:21:24.350Z,1.73
2023-01-10T14:24:27.573Z,3.45
2023-01-10T14:27:15.270Z,2.20
2023-01-10T14:30:02.228Z,1.58
2023-01-10T14:32:53.868Z,3.28
2023-01-10T14:35:44.568Z,3.45
2023-01-10T14:38:33.623Z,4.95
2023-01-10T14:41:23.049Z,2.58
2023-01-10T14:44:26.451Z,1.85
2023-01-10T14:47:29.352Z,1.48
2023-01-10T14:50:32.529Z,2.42
2023-01-10T14:53:27.283Z,2.25
2023-01-10T14:56:21.844Z,1.83
2023-01-10T14:59:24.294Z,3.47
2023-01-10T15:02:23.707Z,3.15
2023-01-10T15:05:17.315Z,1.70
2023-01-10T15:08:23.559Z,2.38
2023-01-10T15:11:12.501Z,2.28
2023-01-10T15:14:03.700Z,2.25
2023-01-10T15:16:49.771Z,3.00
2023-01-10T15:19:37.743Z,6.35
2023-01-10T15:22:35.710Z,2.83
2023-01-10T15:25:22.873Z,1.52
2023-01-10T15:28:15.929Z,6.07
2023-01-10T15:31:04.196Z,3.08
2023-01-10T15:33:56.659Z,2.72
2023-01-10T15:39:35.936Z,3.65
2023-01-10T15:42:22.957Z,2.70
2023-01-10T15:45:39.211Z,3.63
2023-01-10T15:48:36.882Z,9.63
2023-01-10T15:51:29.006Z,4.15
2023-01-10T15:54:21.816Z,13.87
2023-01-10T15:57:20.998Z,26.45
2023-01-10T16:00:16.137Z,10.73
2023-01-10T16:03:02.430Z,5.30
2023-01-10T16:05:56.168Z,2.95
2023-01-10T16:08:48.840Z,2.35
2023-01-10T16:11:58.631Z,1.90
2023-01-10T16:14:44.708Z,2.20
2023-01-10T16:17:30.624Z,1.40
2023-01-10T16:20:19.954Z,1.80
2023-01-10T16:23:08.909Z,2.10
2023-01-10T16:25:59.824Z,2.40
2023-01-10T16:28:45.825Z,2.00
2023-01-10T16:31:31.756Z,2.67
2023-01-10T16:34:17.785Z,2.25
2023-01-10T16:37:03.819Z,2.22
2023-01-10T16:39:49.663Z,3.05
2023-01-10T16:42:54.125Z,2.58
2023-01-10T16:45:40.752Z,3.45
2023-01-10T16:48:28.732Z,2.40
2023-01-10T16:51:20.169Z,1.83
2023-01-10T16:54:06.187Z,2.42
2023-01-10T16:56:52.801Z,2.00
2023-01-10T16:59:38.518Z,2.00
2023-01-10T17:02:24.968Z,2.42
2023-01-10T17:05:11.346Z,2.55
2023-01-10T17:07:57.075Z,2.75
2023-01-10T17:10:43.577Z,1.63
2023-01-10T17:13:34.963Z,2.00
2023-01-10T17:16:20.899Z,2.33
2023-01-10T17:19:06.632Z,3.83
2023-01-10T17:21:53.190Z,2.15
2023-01-10T17:24:39.149Z,2.42
2023-01-10T17:27:24.820Z,2.97
2023-01-10T17:30:11.915Z,2.55
2023-01-10T17:32:58.742Z,3.20
2023-01-10T17:35:45.454Z,2.38
2023-01-10T17:38:31.775Z,4.53
2023-01-10T17:41:17.517Z,2.67
2023-01-10T17:44:03.579Z,3.97
2023-01-10T17:46:49.544Z,3.08
2023-01-10T17:49:36.448Z,3.17
2023-01-10T17:52:22.391Z,3.60
2023-01-10T17:55:08.448Z,2.75
2023-01-10T17:57:54.626Z,2.95
2023-01-10T18:00:40.810Z,2.55
2023-01-10T18:03:26.884Z,1.98
2023-01-10T18:06:23.261Z,3.70
2023-01-10T18:09:10.056Z,2.63
2023-01-10T18:11:56.127Z,4.07
2023-01-10T18:14:41.953Z,5.22
2023-01-10T18:17:28.176Z,3.58
2023-01-10T18:20:14.332Z,2.35
2023-01-10T18:23:18.629Z,2.53
2023-01-10T18:26:07.433Z,2.65
2023-01-10T18:28:54.348Z,1.52
2023-01-10T18:31:41.474Z,2.67
2023-01-10T18:34:27.885Z,2.33
2023-01-10T18:37:15.098Z,2.20
2023-01-10T18:40:01.300Z,3.13
2023-01-10T18:42:51.419Z,3.95
2023-01-10T18:45:37.447Z,4.93
2023-01-10T18:48:25.823Z,5.15
2023-01-10T18:51:14.267Z,4.65
2023-01-10T18:54:01.181Z,2.10
2023-01-10T18:56:47.534Z,4.10
2023-01-10T18:59:33.658Z,2.05
2023-01-10T19:02:19.559Z,2.72
2023-01-10T19:05:09.456Z,3.15
2023-01-10T19:07:55.290Z,2.13
2023-01-10T19:11:07.444Z,2.10
2023-01-10T19:13:54.086Z,3.70
2023-01-10T19:16:40.280Z,1.77
2023-01-10T19:19:26.433Z,4.88
2023-01-10T19:22:12.600Z,2.67
2023-01-10T19:24:58.375Z,3.20
2023-01-10T19:27:44.533Z,4.18
2023-01-10T19:30:31.018Z,4.57
2023-01-10T19:33:17.030Z,2.00
2023-01-10T19:36:09.708Z,2.15
2023-01-10T19:41:43.437Z,4.95
2023-01-10T19:44:29.491Z,2.03
2023-01-10T19:47:15.864Z,3.08
2023-01-10T19:50:01.941Z,2.80
2023-01-10T19:52:48.175Z,1.48
2023-01-10T19:55:34.542Z,2.20
2023-01-10T19:58:20.387Z,2.10
2023-01-10T20:01:27.300Z,4.03
2023-01-10T20:04:13.915Z,4.35
2023-01-10T20:07:00.352Z,2.60
2023-01-10T20:09:46.751Z,2.13
2023-01-10T20:12:32.843Z,1.63
2023-01-10T20:15:18.805Z,3.25
2023-01-10T20:18:04.824Z,2.22
2023-01-10T20:20:51.065Z,2.35
2023-01-10T20:23:38.677Z,2.13
2023-01-10T20:26:27.900Z,1.70
2023-01-10T20:29:14.911Z,2.00
2023-01-10T20:32:02.550Z,2.35
2023-01-10T20:34:49.859Z,2.05
2023-01-10T20:37:35.698Z,3.95
2023-01-10T20:40:24.997Z,2.00
2023-01-10T20:43:11.035Z,3.17
2023-01-10T20:45:57.019Z,3.83
2023-01-10T20:48:43.505Z,5.35
2023-01-10T20:51:32.736Z,3.28
2023-01-10T20:54:18.787Z,3.22
2023-01-10T20:57:04.647Z,3.53
2023-01-10T20:59:50.871Z,3.75
2023-01-10T21:02:36.734Z,3.25
2023-01-10T21:05:23.227Z,3.22
2023-01-10T21:08:09.430Z,6.38
2023-01-10T21:10:56.180Z,5.22
2023-01-10T21:13:42.470Z,5.03
2023-01-10T21:16:28.753Z,5.07
2023-01-10T21:19:16.816Z,4.05
2023-01-10T21:22:03.049Z,5.88
2023-01-10T21:24:49.953Z,4.60
2023-01-10T21:27:35.811Z,3.65
2023-01-10T21:30:22.106Z,4.82
2023-01-10T21:33:09.918Z,7.28
2023-01-10T21:36:00.367Z,4.13
2023-01-10T21:38:46.661Z,5.55
2023-01-10T21:41:50.907Z,3.70
2023-01-10T21:44:37.184Z,3.75
2023-01-10T21:47:23.603Z,5.95
2023-01-10T21:50:12.079Z,4.75
2023-01-10T21:52:58.006Z,3.65
2023-01-10T21:55:44.378Z,4.88
2023-01-10T21:58:30.212Z,2.55
2023-01-10T22:01:16.136Z,2.67
2023-01-10T22:04:02.073Z,2.85
2023-01-10T22:06:48.046Z,3.17
2023-01-10T22:09:34.426Z,3.03
2023-01-10T22:12:21.999Z,2.55
2023-01-10T22:15:08.442Z,2.60
2023-01-10T22:17:54.432Z,6.32
2023-01-10T22:20:44.163Z,2.63
2023-01-10T22:23:31.030Z,5.95
2023-01-10T22:26:16.910Z,6.45
2023-01-10T22:29:02.573Z,5.90
2023-01-10T22:31:49.099Z,4.85
2023-01-10T22:34:34.837Z,5.90
2023-01-10T22:37:20.681Z,4.65
2023-01-10T22:40:07.316Z,5.72
2023-01-10T22:42:53.697Z,7.88
2023-01-10T22:45:43.307Z,7.57
2023-01-10T22:48:29.658Z,6.78
2023-01-10T22:51:17.206Z,6.97
2023-01-10T22:54:04.547Z,4.03
2023-01-10T22:56:50.613Z,4.22
2023-01-10T22:59:37.044Z,5.25
2023-01-10T23:02:22.778Z,3.53
2023-01-10T23:05:08.895Z,3.10
2023-01-10T23:07:54.915Z,4.10
2023-01-10T23:10:40.783Z,3.85
2023-01-10T23:13:26.762Z,3.13
2023-01-10T23:16:20.152Z,3.83
2023-01-10T23:19:06.403Z,3.65
2023-01-10T23:21:52.246Z,3.25
2023-01-10T23:24:38.488Z,2.17
2023-01-10T23:27:24.576Z,3.05
2023-01-10T23:30:11.167Z,3.05
2023-01-10T23:32:57.368Z,1.95
2023-01-10T23:35:43.050Z,2.67
2023-01-10T23:38:29.112Z,2.95
2023-01-10T23:41:15.337Z,5.90
2023-01-10T23:44:01.043Z,4.18
2023-01-10T23:46:46.978Z,3.65
2023-01-10T23:49:32.795Z,2.20
2023-01-10T23:52:18.675Z,2.75
2023-01-10T23:55:04.982Z,2.60
2023-01-10T23:57:50.889Z,2.90
